Time;durP1;ratioP1;P1;durP2;ratioP2;P2;SDS_P1;SDS_P2;PMS_P1;PMS_P2;Temp;Humidity;BMP_temperature;BMP_pressure;BME280_temperature;BME280_humidity;BME280_pressure;Samples;Min_cycle;Max_cycle;Signal;HPM_P1;HPM_P2
2022/05/25 00:02:01;;;;;;;5.30;2.63;;;;;;;10.66;97.41;99032.94;5008099;28;20045;-55
2022/05/25 00:04:26;;;;;;;5.47;2.60;;;;;;;10.69;96.35;99035.16;5007154;28;20377;-56
2022/05/25 00:06:52;;;;;;;4.15;2.50;;;;;;;10.67;96.61;99037.25;5007378;28;20062;-55
2022/05/25 00:09:18;;;;;;;7.85;2.53;;;;;;;10.73;95.19;99041.63;5005758;28;20025;-55
2022/05/25 00:11:43;;;;;;;6.22;3.00;;;;;;;10.72;94.76;99035.47;5006612;28;20064;-55
2022/05/25 00:14:09;;;;;;;7.72;2.42;;;;;;;10.73;95.56;99046.97;5008609;28;20471;-56
2022/05/25 00:16:34;;;;;;;7.22;2.75;;;;;;;10.72;95.50;99050.72;4987278;28;20473;-55
2022/05/25 00:21:44;;;;;;;5.53;2.95;;;;;;;10.54;97.22;99066.03;5002459;28;20064;-55
2022/05/25 00:24:10;;;;;;;3.50;2.20;;;;;;;10.63;96.89;99066.41;5007833;28;20472;-56
2022/05/25 00:26:36;;;;;;;4.93;2.50;;;;;;;10.39;97.05;99056.97;5006676;28;20116;-56
2022/05/25 00:29:04;;;;;;;12.65;2.53;;;;;;;10.36;97.61;99063.63;5006094;28;20527;-57
2022/05/25 00:31:30;;;;;;;4.50;2.30;;;;;;;10.23;97.95;99064.72;5005772;28;20026;-60
2022/05/25 00:33:56;;;;;;;6.35;2.55;;;;;;;10.21;98.37;99068.69;4989546;28;20100;-56
2022/05/25 00:36:22;;;;;;;3.28;2.17;;;;;;;10.15;99.14;99068.63;5007670;28;20044;-57
2022/05/25 00:38:48;;;;;;;3.78;2.47;;;;;;;10.12;99.89;99077.16;4973316;28;20087;-56
2022/05/25 00:41:14;;;;;;;4.13;2.60;;;;;;;10.01;99.40;99071.84;5006557;28;20040;-56
2022/05/25 00:43:39;;;;;;;5.85;2.67;;;;;;;10.07;99.21;99070.91;5001585;28;20033;-55
2022/05/25 00:46:08;;;;;;;4.45;2.55;;;;;;;10.09;98.80;99069.59;5006525;28;20061;-55
2022/05/25 00:49:08;;;;;;;4.80;2.47;;;;;;;10.00;98.36;99071.06;5002159;28;20073;-56
2022/05/25 00:51:38;;;;;;;5.45;2.50;;;;;;;9.79;99.35;99074.44;4984035;28;20042;-55
2022/05/25 00:54:07;;;;;;;3.95;2.53;;;;;;;9.76;98.70;99069.56;4984713;28;20038;-54
2022/05/25 00:56:33;;;;;;;7.32;2.83;;;;;;;9.54;99.30;99078.28;4985286;28;20057;-54
2022/05/25 00:59:25;;;;;;;4.80;2.65;;;;;;;9.38;100.00;99079.03;4987490;28;20061;-54
2022/05/25 01:01:50;;;;;;;9.80;2.83;;;;;;;9.23;100.00;99075.00;4976395;28;20039;-54
2022/05/25 01:04:16;;;;;;;7.07;2.80;;;;;;;9.21;100.00;99076.28;4969310;28;20038;-55
2022/05/25 01:07:04;;;;;;;6.53;2.80;;;;;;;9.08;100.00;99077.38;4986290;28;20109;-55
2022/05/25 01:09:48;;;;;;;4.10;2.63;;;;;;;9.03;100.00;99082.63;5001478;28;20026;-53
2022/05/25 01:12:26;;;;;;;8.98;2.85;;;;;;;9.02;100.00;99086.34;4986513;28;20130;-55
2022/05/25 01:15:28;;;;;;;9.45;3.20;;;;;;;9.10;100.00;99083.28;4984732;28;20394;-56
2022/05/25 01:17:58;;;;;;;4.65;2.53;;;;;;;9.05;100.00;99085.88;4985369;28;20034;-54
2022/05/25 01:20:41;;;;;;;5.63;2.65;;;;;;;9.00;100.00;99088.44;5000232;28;20030;-54
2022/05/25 01:23:49;;;;;;;10.02;3.03;;;;;;;8.97;100.00;99088.91;4986192;28;20022;-54
2022/05/25 01:26:31;;;;;;;11.85;3.25;;;;;;;9.04;100.00;99090.41;4981014;28;20035;-54
2022/05/25 01:29:02;;;;;;;7.68;3.00;;;;;;;9.15;99.30;99088.75;4961718;28;20485;-52
2022/05/25 01:31:50;;;;;;;4.22;2.75;;;;;;;9.28;98.30;99099.19;4986140;28;20042;-54
2022/05/25 01:34:16;;;;;;;6.32;2.90;;;;;;;9.28;97.41;99099.19;4973251;28;20073;-54
2022/05/25 01:37:17;;;;;;;6.05;2.75;;;;;;;9.22;97.09;99108.16;4986993;28;20026;-54
2022/05/25 01:39:55;;;;;;;4.57;2.75;;;;;;;9.14;97.45;99094.34;4980166;28;20093;-55
2022/05/25 01:42:44;;;;;;;7.80;3.00;;;;;;;9.11;97.98;99100.16;4959310;28;20046;-55
2022/05/25 01:45:09;;;;;;;4.72;2.70;;;;;;;9.03;97.50;99109.34;4981318;28;20038;-54
2022/05/25 01:47:36;;;;;;;5.70;2.47;;;;;;;8.95;97.05;99102.50;4990617;28;20042;-54
2022/05/25 01:50:09;;;;;;;5.72;2.85;;;;;;;8.89;96.90;99097.31;4972824;28;20053;-55
2022/05/25 01:52:39;;;;;;;4.63;2.38;;;;;;;8.79;96.55;99101.38;4986887;28;20026;-57
2022/05/25 01:55:07;;;;;;;8.15;2.97;;;;;;;8.76;96.47;99103.69;4988714;28;20099;-56
2022/05/25 01:57:36;;;;;;;7.20;2.67;;;;;;;8.52;98.15;99103.69;4971210;28;20045;-56
2022/05/25 02:00:02;;;;;;;8.23;2.70;;;;;;;8.47;99.49;99098.22;4957329;28;20026;-56
2022/05/25 02:05:13;;;;;;;4.18;2.90;;;;;;;8.32;100.00;99113.88;5005475;28;20033;-56
2022/05/25 02:08:02;;;;;;;10.07;3.22;;;;;;;8.28;100.00;99112.69;5004742;28;20036;-56
2022/05/25 02:10:53;;;;;;;11.30;3.42;;;;;;;8.24;100.00;99111.50;5002770;28;20103;-56
2022/05/25 02:13:34;;;;;;;13.07;3.10;;;;;;;8.01;100.00;99102.41;4995668;28;20065;-56
2022/05/25 02:16:13;;;;;;;6.63;3.00;;;;;;;8.04;100.00;99093.13;4972834;28;20022;-56
2022/05/25 02:19:01;;;;;;;7.85;2.58;;;;;;;8.11;100.00;99112.53;4969271;28;20057;-55
2022/05/25 02:21:51;;;;;;;4.53;2.97;;;;;;;8.18;100.00;99105.25;5002752;28;20104;-55
2022/05/25 02:24:37;;;;;;;7.40;2.92;;;;;;;8.21;99.85;99110.13;5000978;28;20041;-56
2022/05/25 02:27:28;;;;;;;5.78;2.92;;;;;;;8.11;99.56;99107.19;4988150;28;20125;-56
2022/05/25 02:29:58;;;;;;;8.27;3.00;;;;;;;8.17;98.64;99112.44;4984864;28;20030;-55
2022/05/25 02:32:29;;;;;;;6.32;2.67;;;;;;;8.01;98.87;99107.75;4987732;28;20034;-56
2022/05/25 02:34:55;;;;;;;4.28;2.70;;;;;;;8.02;98.74;99111.25;5002666;28;20614;-55
2022/05/25 02:37:23;;;;;;;6.03;2.88;;;;;;;8.01;98.09;99107.75;4970033;28;20030;-56
2022/05/25 02:39:55;;;;;;;5.22;2.80;;;;;;;8.03;97.66;99113.69;4978315;28;20401;-55
2022/05/25 02:42:21;;;;;;;4.45;2.67;;;;;;;8.02;97.58;99103.25;4988004;28;20088;-55
2022/05/25 02:44:46;;;;;;;5.65;2.75;;;;;;;8.06;96.99;99109.75;5005419;28;20034;-53
2022/05/25 02:47:12;;;;;;;5.15;2.70;;;;;;;8.06;96.52;99105.22;5003979;28;20041;-56
2022/05/25 02:49:38;;;;;;;4.63;2.78;;;;;;;8.03;97.04;99110.22;5004815;28;20126;-55
2022/05/25 02:52:04;;;;;;;6.22;3.10;;;;;;;7.93;97.47;99114.22;5005660;28;20049;-54
2022/05/25 02:54:30;;;;;;;5.80;2.55;;;;;;;7.82;98.00;99120.38;4990744;28;20021;-55
2022/05/25 02:56:55;;;;;;;5.28;2.58;;;;;;;7.77;98.39;99122.91;5009469;28;20044;-54
2022/05/25 02:59:21;;;;;;;5.03;2.70;;;;;;;7.84;98.91;99125.47;5010596;28;20084;-55
2022/05/25 03:01:47;;;;;;;5.80;3.00;;;;;;;7.76;99.47;99137.25;5010221;28;20041;-55
2022/05/25 03:04:12;;;;;;;8.73;3.28;;;;;;;7.75;100.00;99135.66;5009552;28;20037;-55
2022/05/25 03:06:41;;;;;;;6.53;3.20;;;;;;;7.70;100.00;99146.19;5009681;28;20260;-55
2022/05/25 03:09:09;;;;;;;12.27;3.65;;;;;;;7.64;100.00;99141.72;5009096;28;20119;-52
2022/05/25 03:11:35;;;;;;;10.60;4.13;;;;;;;7.60;100.00;99148.56;5008922;28;20025;-54
2022/05/25 03:14:00;;;;;;;6.93;3.08;;;;;;;7.66;100.00;99147.66;5008831;28;20034;-53
2022/05/25 03:16:26;;;;;;;7.65;3.00;;;;;;;7.63;100.00;99148.13;5008004;28;20029;-55
2022/05/25 03:18:52;;;;;;;5.22;3.20;;;;;;;7.51;100.00;99148.91;5009354;28;20042;-54
2022/05/25 03:21:18;;;;;;;6.45;3.35;;;;;;;7.42;100.00;99152.09;5008142;28;20109;-54
2022/05/25 03:23:44;;;;;;;7.53;3.55;;;;;;;7.26;100.00;99153.47;5008496;28;20507;-54
2022/05/25 03:26:09;;;;;;;9.32;3.63;;;;;;;7.29;100.00;99156.53;5004269;28;20030;-54
2022/05/25 03:28:35;;;;;;;7.28;3.50;;;;;;;7.26;100.00;99154.31;5008115;28;20046;-55
2022/05/25 03:31:01;;;;;;;9.88;4.22;;;;;;;7.41;100.00;99156.56;5001574;28;20490;-54
2022/05/25 03:33:29;;;;;;;7.72;3.20;;;;;;;7.48;100.00;99161.84;4989759;28;20018;-55
2022/05/25 03:35:55;;;;;;;5.35;3.50;;;;;;;7.61;100.00;99160.88;5005305;28;20057;-55
2022/05/25 03:38:20;;;;;;;5.93;3.63;;;;;;;7.71;100.00;99163.81;5007705;28;20029;-53
2022/05/25 03:40:46;;;;;;;4.72;2.90;;;;;;;7.67;100.00;99162.66;5008214;28;20026;-54
2022/05/25 03:43:12;;;;;;;6.07;3.15;;;;;;;7.60;100.00;99173.38;5008690;28;20049;-53
2022/05/25 03:45:38;;;;;;;8.75;3.50;;;;;;;7.55;100.00;99167.91;4990999;28;20034;-55
2022/05/25 03:48:07;;;;;;;4.75;2.88;;;;;;;8.10;97.70;99175.00;5007465;28;20045;-54
2022/05/25 03:50:34;;;;;;;5.88;2.90;;;;;;;8.46;94.18;99173.25;5006099;28;20025;-55
2022/05/25 03:53:00;;;;;;;7.95;2.70;;;;;;;8.68;92.89;99189.53;5000076;28;20439;-55
2022/05/25 03:55:25;;;;;;;6.63;2.90;;;;;;;9.04;90.65;99191.19;5005722;28;20447;-54
2022/05/25 03:57:51;;;;;;;5.68;2.65;;;;;;;9.23;89.13;99191.84;4991902;28;20516;-55
2022/05/25 04:00:17;;;;;;;7.57;2.35;;;;;;;9.35;87.45;99186.50;4996310;28;20061;-55
2022/05/25 04:02:44;;;;;;;3.20;2.20;;;;;;;9.53;88.06;99186.34;5005491;28;20113;-54
2022/05/25 04:05:10;;;;;;;5.30;2.65;;;;;;;9.32;87.23;99193.13;4973334;28;20120;-54
2022/05/25 04:07:43;;;;;;;7.07;2.60;;;;;;;9.82;85.52;99197.91;5004183;28;20122;-54
2022/05/25 04:10:13;;;;;;;5.97;2.55;;;;;;;10.21;83.35;99192.75;4967749;28;20034;-57
2022/05/25 04:12:42;;;;;;;3.38;2.05;;;;;;;9.79;85.15;99193.03;4995119;28;20080;-54
2022/05/25 04:15:40;;;;;;;8.30;2.40;;;;;;;10.07;82.68;99202.13;5001086;28;20041;-55
2022/05/25 04:18:08;;;;;;;2.83;2.10;;;;;;;10.13;82.62;99206.50;4987628;28;20038;-54
2022/05/25 04:20:36;;;;;;;4.25;2.25;;;;;;;10.73;80.48;99205.13;4997045;28;20084;-57
2022/05/25 04:23:02;;;;;;;5.88;2.50;;;;;;;10.87;80.74;99203.75;5007281;28;20656;-56
2022/05/25 04:25:28;;;;;;;7.97;2.65;;;;;;;11.39;78.00;99205.31;5006190;28;20129;-56
2022/05/25 04:27:55;;;;;;;4.68;2.40;;;;;;;12.04;76.52;99206.38;5005024;28;20038;-55
2022/05/25 04:30:40;;;;;;;4.15;2.20;;;;;;;12.39;74.73;99202.44;5008679;28;20030;-54
2022/05/25 04:33:06;;;;;;;4.88;1.90;;;;;;;12.69;73.48;99213.44;5003332;28;20029;-55
2022/05/25 04:35:32;;;;;;;3.33;2.10;;;;;;;11.81;74.80;99213.63;5004503;28;20041;-55
2022/05/25 04:37:57;;;;;;;6.10;1.77;;;;;;;12.07;74.34;99222.00;4991206;28;20529;-55
2022/05/25 04:40:27;;;;;;;4.05;2.22;;;;;;;11.55;76.67;99222.41;5007762;28;20057;-55
2022/05/25 04:42:53;;;;;;;3.65;1.85;;;;;;;13.86;69.50;99233.28;4996462;28;20080;-55
2022/05/25 04:45:21;;;;;;;4.03;2.08;;;;;;;12.86;71.84;99234.03;5005646;28;20030;-56
2022/05/25 04:47:46;;;;;;;5.50;2.10;;;;;;;12.52;72.03;99228.88;5006381;28;20407;-55
2022/05/25 04:50:13;;;;;;;5.72;2.10;;;;;;;13.18;70.11;99234.00;4987413;28;20057;-56
2022/05/25 04:52:38;;;;;;;3.85;2.13;;;;;;;12.39;73.42;99237.38;5006594;28;20684;-56
2022/05/25 04:55:05;;;;;;;3.63;1.80;;;;;;;11.83;75.29;99235.69;5005926;28;20072;-56
2022/05/25 04:57:31;;;;;;;7.07;2.17;;;;;;;11.65;77.32;99238.66;5007076;28;20040;-56
2022/05/25 05:00:00;;;;;;;4.05;2.05;;;;;;;12.91;72.86;99239.44;5004543;28;20030;-55
2022/05/25 05:02:27;;;;;;;4.20;1.75;;;;;;;12.93;71.53;99243.50;4988048;28;20032;-56
2022/05/25 05:04:52;;;;;;;4.55;2.05;;;;;;;15.06;65.86;99249.13;5010786;28;20041;-55
2022/05/25 05:07:18;;;;;;;6.75;1.83;;;;;;;16.27;60.58;99253.63;5009676;28;20436;-56
2022/05/25 05:09:45;;;;;;;7.25;2.10;;;;;;;16.03;61.22;99253.50;4983868;28;20066;-56
2022/05/25 05:12:11;;;;;;;3.45;1.70;;;;;;;15.60;61.41;99263.06;5005492;28;20030;-55
2022/05/25 05:14:39;;;;;;;5.28;2.30;;;;;;;16.91;59.80;99265.41;5004459;28;20504;-56
2022/05/25 05:17:06;;;;;;;2.78;1.70;;;;;;;17.55;57.77;99270.78;5003152;28;20049;-57
2022/05/25 05:19:32;;;;;;;5.68;1.83;;;;;;;17.83;55.45;99269.94;5005550;28;20080;-56
2022/05/25 05:21:57;;;;;;;2.90;1.70;;;;;;;18.24;52.88;99268.63;4979138;28;20484;-56
2022/05/25 05:24:24;;;;;;;3.90;1.83;;;;;;;17.98;55.70;99270.88;5003382;28;20022;-56
2022/05/25 05:26:50;;;;;;;4.97;1.70;;;;;;;15.42;62.87;99275.28;5005144;28;20355;-57
2022/05/25 05:29:15;;;;;;;6.10;2.05;;;;;;;15.07;63.77;99276.94;5008892;28;20123;-56
2022/05/25 05:31:41;;;;;;;3.65;1.75;;;;;;;16.10;60.65;99278.34;5004618;28;20022;-56
2022/05/25 05:34:06;;;;;;;2.35;1.60;;;;;;;17.47;57.11;99274.91;5005785;28;20069;-55
2022/05/25 05:36:39;;;;;;;2.50;1.70;;;;;;;19.28;52.56;99285.78;5005211;28;20362;-57
2022/05/25 05:39:07;;;;;;;8.10;2.00;;;;;;;16.92;57.02;99283.25;4988428;28;20026;-57
2022/05/25 05:41:50;;;;;;;4.93;1.70;;;;;;;19.87;51.60;99291.50;5005623;28;20022;-56
2022/05/25 05:44:18;;;;;;;5.32;1.80;;;;;;;19.30;51.27;99291.75;5000355;28;20380;-55
2022/05/25 05:46:43;;;;;;;2.35;1.70;;;;;;;18.46;53.16;99284.31;4986795;28;20104;-54
2022/05/25 05:49:09;;;;;;;2.47;1.55;;;;;;;18.94;52.24;99297.75;5000577;28;20038;-55
2022/05/25 05:51:35;;;;;;;4.05;1.98;;;;;;;21.11;48.25;99297.47;5004527;28;20038;-54
2022/05/25 05:54:02;;;;;;;4.60;1.85;;;;;;;19.79;48.75;99306.63;4987193;28;20403;-55
2022/05/25 05:56:29;;;;;;;6.95;1.75;;;;;;;19.54;49.27;99311.38;4986724;28;20117;-56
2022/05/25 05:58:54;;;;;;;2.97;1.70;;;;;;;19.60;51.69;99298.53;4988181;28;20579;-54
2022/05/25 06:01:20;;;;;;;2.90;1.70;;;;;;;20.54;46.98;99304.53;5005906;28;20110;-55
2022/05/25 06:03:46;;;;;;;3.40;1.80;;;;;;;21.35;46.48;99306.47;4997917;28;20105;-55
2022/05/25 06:06:11;;;;;;;3.25;1.70;;;;;;;21.41;44.69;99310.69;4997244;28;20032;-55
2022/05/25 06:08:37;;;;;;;2.78;1.63;;;;;;;21.28;46.17;99307.69;5005673;28;20021;-55
2022/05/25 06:11:02;;;;;;;3.22;1.60;;;;;;;21.48;45.65;99311.84;4971168;28;20026;-55
2022/05/25 06:13:31;;;;;;;2.30;1.63;;;;;;;19.64;49.73;99309.59;4986166;28;20025;-56
2022/05/25 06:21:27;;;;;;;3.88;1.73;;;;;;;20.23;48.58;99314.16;4998714;28;20041;-55
2022/05/25 06:23:53;;;;;;;3.08;1.48;;;;;;;22.09;44.42;99309.38;5001907;28;20026;-54
2022/05/25 06:26:18;;;;;;;4.47;1.83;;;;;;;21.08;45.03;99310.94;5004462;28;20072;-54
2022/05/25 06:28:44;;;;;;;3.97;1.65;;;;;;;18.68;51.62;99317.13;4971796;28;20030;-54
2022/05/25 06:31:10;;;;;;;4.97;1.80;;;;;;;18.45;55.32;99318.00;5005308;28;20041;-57
2022/05/25 06:33:37;;;;;;;5.20;1.70;;;;;;;19.82;50.77;99328.59;5002849;28;20026;-54
2022/05/25 06:36:24;;;;;;;4.68;1.98;;;;;;;20.27;50.52;99330.72;5004282;28;20018;-57
2022/05/25 06:38:49;;;;;;;4.82;1.63;;;;;;;21.62;47.92;99328.13;5003753;28;20113;-56
2022/05/25 06:41:15;;;;;;;5.53;1.80;;;;;;;21.07;46.78;99331.13;5001425;28;20034;-57
2022/05/25 06:43:41;;;;;;;3.53;1.70;;;;;;;22.51;44.06;99325.38;4982183;28;20026;-55
2022/05/25 06:46:07;;;;;;;3.53;1.67;;;;;;;21.27;47.23;99332.56;5004681;28;20025;-55
2022/05/25 06:48:33;;;;;;;4.60;1.50;;;;;;;22.33;44.31;99338.19;5004671;28;20042;-55
2022/05/25 06:51:07;;;;;;;3.45;1.70;;;;;;;23.11;42.95;99337.47;5004168;28;20031;-55
2022/05/25 06:53:33;;;;;;;3.03;1.60;;;;;;;21.22;45.81;99343.59;4988047;28;20084;-56
2022/05/25 06:55:58;;;;;;;4.30;1.80;;;;;;;17.42;54.50;99337.28;4982306;28;20044;-55
2022/05/25 06:58:27;;;;;;;2.50;1.60;;;;;;;16.32;59.96;99350.97;5005171;28;20070;-55
2022/05/25 07:00:52;;;;;;;4.23;1.80;;;;;;;20.27;51.24;99349.75;5003864;28;20036;-54
2022/05/25 07:03:18;;;;;;;3.05;1.80;;;;;;;17.37;57.11;99346.28;5000647;28;20412;-54
2022/05/25 07:05:43;;;;;;;3.38;1.75;;;;;;;17.91;58.26;99352.56;5004347;28;20515;-55
2022/05/25 07:08:09;;;;;;;3.90;1.83;;;;;;;17.84;55.36;99350.16;5000643;28;20053;-54
2022/05/25 07:10:34;;;;;;;2.65;1.73;;;;;;;21.68;48.36;99354.13;5004945;28;20033;-55
2022/05/25 07:13:00;;;;;;;6.50;1.58;;;;;;;22.74;43.98;99359.66;5000383;28;20551;-56
2022/05/25 07:15:26;;;;;;;4.68;1.60;;;;;;;20.84;47.78;99363.81;4999197;28;20141;-54
2022/05/25 07:17:51;;;;;;;3.75;1.60;;;;;;;20.52;48.46;99374.81;5003965;28;20676;-55
2022/05/25 07:20:17;;;;;;;3.50;1.60;;;;;;;22.09;46.09;99363.13;5004396;28;20546;-56
2022/05/25 07:22:42;;;;;;;3.80;1.60;;;;;;;22.86;45.42;99363.66;4985004;28;20034;-57
2022/05/25 07:25:08;;;;;;;4.75;1.73;;;;;;;21.32;46.57;99365.13;5001131;28;20034;-55
2022/05/25 07:27:34;;;;;;;5.28;1.95;;;;;;;22.07;46.19;99366.19;5003541;28;20464;-56
2022/05/25 07:29:59;;;;;;;6.18;1.60;;;;;;;23.20;43.75;99362.88;5002176;28;20034;-55
2022/05/25 07:32:25;;;;;;;1.95;1.38;;;;;;;22.71;44.04;99359.47;4998899;28;20033;-56
2022/05/25 07:34:57;;;;;;;3.83;1.63;;;;;;;21.23;46.16;99365.06;5002784;28;20044;-55
2022/05/25 07:37:23;;;;;;;3.60;1.70;;;;;;;21.01;48.89;99368.56;4964919;28;20026;-54
2022/05/25 07:40:01;;;;;;;4.45;1.60;;;;;;;21.65;48.82;99371.13;4988721;28;20026;-55
2022/05/25 07:42:27;;;;;;;5.10;1.70;;;;;;;22.10;46.14;99365.56;5005485;28;20133;-55
2022/05/25 07:44:57;;;;;;;4.10;1.33;;;;;;;20.40;47.82;99369.91;4989112;28;20121;-55
2022/05/25 07:47:28;;;;;;;3.70;1.40;;;;;;;20.48;50.08;99380.06;4986442;28;20038;-54
2022/05/25 07:49:53;;;;;;;6.18;1.50;;;;;;;21.65;46.79;99376.59;4990286;28;20119;-55
2022/05/25 07:52:20;;;;;;;6.32;1.50;;;;;;;21.37;47.54;99370.47;5007151;28;20021;-55
2022/05/25 07:54:46;;;;;;;2.55;1.60;;;;;;;21.47;48.43;99375.69;4985954;28;20065;-56
2022/05/25 07:57:12;;;;;;;7.15;1.50;;;;;;;22.83;44.16;99373.31;4989567;28;20500;-55
2022/05/25 07:59:38;;;;;;;4.82;1.50;;;;;;;21.94;43.28;99362.47;5004943;28;20060;-54
2022/05/25 08:07:57;;;;;;;2.10;1.20;;;;;;;19.89;49.56;99346.41;4976618;28;20107;-56
2022/05/25 08:10:24;;;;;;;2.75;1.40;;;;;;;21.86;45.84;99354.22;5007695;28;20477;-54
2022/05/25 08:12:51;;;;;;;3.55;1.30;;;;;;;24.00;41.98;99356.91;4983598;28;20192;-55
2022/05/25 08:15:17;;;;;;;1.67;1.27;;;;;;;24.83;40.98;99347.25;4988504;28;20499;-55
2022/05/25 08:17:43;;;;;;;3.70;1.20;;;;;;;22.61;44.57;99363.31;5003378;28;20033;-54
2022/05/25 08:20:11;;;;;;;1.95;1.30;;;;;;;21.25;45.24;99362.03;5006866;28;20064;-55
2022/05/25 08:22:38;;;;;;;3.10;1.48;;;;;;;18.98;51.83;99358.53;5005646;28;20025;-55
2022/05/25 08:25:05;;;;;;;1.35;1.00;;;;;;;22.38;45.62;99360.69;5007389;28;20339;-54
2022/05/25 08:27:31;;;;;;;3.70;1.50;;;;;;;23.84;40.68;99354.72;4989354;28;20064;-55
2022/05/25 08:29:57;;;;;;;1.58;0.85;;;;;;;24.50;36.22;99353.44;5006278;28;20072;-55
2022/05/25 08:32:23;;;;;;;2.85;0.77;;;;;;;24.27;32.98;99347.44;5004992;28;20026;-54
2022/05/25 08:34:49;;;;;;;3.53;0.80;;;;;;;24.29;32.25;99356.94;5005688;28;20515;-55
2022/05/25 08:37:14;;;;;;;2.60;1.00;;;;;;;24.17;34.01;99362.31;5006879;28;20145;-56
2022/05/25 08:39:40;;;;;;;4.18;0.93;;;;;;;23.31;34.08;99361.41;5005385;28;20045;-54
2022/05/25 08:42:09;;;;;;;1.05;0.55;;;;;;;25.03;32.01;99359.34;5003093;28;20021;-54
2022/05/25 08:44:35;;;;;;;1.65;0.77;;;;;;;23.86;33.11;99363.41;4972024;28;20025;-54
2022/05/25 08:47:01;;;;;;;2.17;1.02;;;;;;;24.08;33.25;99369.75;5005851;28;20048;-55
2022/05/25 08:49:30;;;;;;;0.75;0.75;;;;;;;24.44;32.20;99360.25;5004082;28;20030;-54
2022/05/25 08:51:58;;;;;;;2.58;0.80;;;;;;;24.47;32.38;99354.13;5005213;28;20060;-54
2022/05/25 08:54:25;;;;;;;0.52;0.43;;;;;;;22.63;33.73;99352.06;4988572;28;20065;-55
2022/05/25 08:57:19;;;;;;;0.90;0.82;;;;;;;23.32;33.68;99357.56;4989109;28;20030;-55
2022/05/25 08:59:53;;;;;;;0.88;0.70;;;;;;;23.63;33.22;99359.25;4990730;28;20050;-54
2022/05/25 09:02:38;;;;;;;1.00;0.75;;;;;;;24.09;32.41;99360.44;4987333;28;20037;-54
2022/05/25 09:05:13;;;;;;;1.13;0.82;;;;;;;24.58;33.18;99366.28;5004329;28;20084;-55
2022/05/25 09:07:51;;;;;;;0.65;0.63;;;;;;;23.57;30.95;99360.56;5006507;28;20476;-54
2022/05/25 09:10:16;;;;;;;1.35;0.68;;;;;;;24.03;30.64;99364.47;5001343;28;20030;-55
2022/05/25 09:12:50;;;;;;;4.28;0.80;;;;;;;21.73;33.41;99353.19;4986711;28;20026;-54
2022/05/25 09:15:24;;;;;;;1.75;0.50;;;;;;;23.82;31.96;99356.97;4989665;28;20827;-55
2022/05/25 09:18:00;;;;;;;3.22;0.80;;;;;;;21.71;34.85;99353.50;4966420;28;20042;-55
2022/05/25 09:20:31;;;;;;;2.17;0.55;;;;;;;22.86;32.44;99350.78;4974231;28;20052;-54
2022/05/25 09:22:57;;;;;;;1.55;0.52;;;;;;;23.31;31.54;99361.41;4987501;28;20339;-54
2022/05/25 09:25:24;;;;;;;1.13;0.77;;;;;;;23.82;31.47;99356.97;4987449;28;20559;-55
2022/05/25 09:28:07;;;;;;;1.02;0.60;;;;;;;23.81;30.66;99360.88;5003604;28;20107;-54
2022/05/25 09:30:35;;;;;;;2.65;0.77;;;;;;;24.37;30.98;99354.47;5003334;28;20026;-54
2022/05/25 09:33:15;;;;;;;0.85;0.68;;;;;;;24.10;31.10;99362.03;5004590;28;20026;-56
2022/05/25 09:35:44;;;;;;;0.57;0.45;;;;;;;23.99;31.10;99355.28;4950714;28;20468;-55
2022/05/25 09:38:45;;;;;;;3.00;0.70;;;;;;;24.72;30.67;99366.84;5003663;28;20038;-55
2022/05/25 09:41:13;;;;;;;1.70;0.90;;;;;;;24.60;30.43;99361.28;4988763;28;20083;-56
2022/05/25 09:43:39;;;;;;;0.98;0.50;;;;;;;22.69;33.40;99359.81;5002157;28;20201;-55
2022/05/25 09:46:20;;;;;;;1.20;0.63;;;;;;;23.81;31.91;99357.31;5004508;28;20033;-54
2022/05/25 09:48:49;;;;;;;2.35;0.90;;;;;;;24.05;31.67;99364.94;4978004;28;20129;-54
2022/05/25 09:51:26;;;;;;;3.05;0.80;;;;;;;24.68;31.24;99363.16;4975759;28;20039;-53
2022/05/25 09:54:03;;;;;;;5.75;0.90;;;;;;;24.49;30.99;99368.28;4983090;28;20034;-55
2022/05/25 09:56:37;;;;;;;2.88;0.80;;;;;;;25.06;31.40;99364.97;4985409;28;20384;-54
2022/05/25 09:59:08;;;;;;;1.83;0.98;;;;;;;25.19;30.37;99363.13;4983452;28;20715;-55
2022/05/25 10:01:43;;;;;;;2.30;1.40;;;;;;;24.80;29.43;99378.06;4979253;28;20036;-54
2022/05/25 10:04:30;;;;;;;2.35;1.00;;;;;;;25.56;29.77;99372.28;4979993;28;20033;-55
2022/05/25 10:06:56;;;;;;;3.55;1.50;;;;;;;25.32;30.66;99363.97;4975001;28;20441;-55
2022/05/25 10:09:28;;;;;;;1.83;1.10;;;;;;;25.34;30.99;99364.44;4982337;28;20101;-54
2022/05/25 10:12:00;;;;;;;4.68;1.20;;;;;;;24.28;31.55;99362.72;4981843;28;20050;-54
2022/05/25 10:14:37;;;;;;;2.88;1.30;;;;;;;22.23;34.38;99360.34;4964487;28;20045;-55
2022/05/25 10:17:14;;;;;;;2.15;1.15;;;;;;;23.13;32.58;99363.38;4978479;28;20503;-55
2022/05/25 10:19:48;;;;;;;2.70;1.25;;;;;;;23.63;32.38;99370.19;4981039;28;20039;-55
2022/05/25 10:22:42;;;;;;;1.15;0.93;;;;;;;23.50;33.18;99372.00;4984376;28;20089;-55
2022/05/25 10:25:39;;;;;;;0.73;0.68;;;;;;;23.29;33.14;99366.41;4998392;28;20085;-54
2022/05/25 10:28:21;;;;;;;1.05;0.95;;;;;;;24.22;32.06;99359.38;4978589;28;20039;-55
2022/05/25 10:39:29;;;;;;;1.75;1.08;;;;;;;22.66;35.20;99360.41;4927661;28;20039;-55
2022/05/25 10:42:18;;;;;;;2.47;0.95;;;;;;;23.51;32.98;99357.19;4994828;28;20027;-55
2022/05/25 10:45:09;;;;;;;1.27;0.60;;;;;;;23.19;34.22;99351.16;4983114;28;20444;-57
2022/05/25 10:48:08;;;;;;;1.77;0.80;;;;;;;23.16;34.42;99350.97;4978027;28;20047;-55
2022/05/25 10:50:55;;;;;;;2.33;0.95;;;;;;;22.94;35.58;99366.41;4981576;28;20081;-55
2022/05/25 10:53:23;;;;;;;1.67;0.98;;;;;;;21.11;37.13;99360.16;4983292;28;20384;-55
2022/05/25 10:56:28;;;;;;;2.70;1.00;;;;;;;20.97;39.02;99369.53;4981971;28;20027;-56
2022/05/25 10:59:05;;;;;;;2.50;0.93;;;;;;;22.47;36.72;99363.47;4980554;28;20117;-57
2022/05/25 11:01:57;;;;;;;2.30;0.70;;;;;;;22.65;36.01;99363.50;4978133;28;20064;-55
2022/05/25 11:04:49;;;;;;;2.70;0.85;;;;;;;22.45;36.49;99357.50;4980881;28;20547;-55
2022/05/25 11:07:20;;;;;;;1.52;0.90;;;;;;;21.71;38.00;99361.69;4984100;28;20413;-55
2022/05/25 11:10:23;;;;;;;3.05;0.80;;;;;;;20.98;38.44;99366.47;4985746;28;20069;-55
2022/05/25 11:13:26;;;;;;;2.38;0.70;;;;;;;20.46;38.32;99374.13;4981716;28;20038;-56
2022/05/25 11:16:26;;;;;;;1.80;0.70;;;;;;;21.59;38.08;99366.94;4987969;28;20034;-55
2022/05/25 11:18:52;;;;;;;1.10;0.75;;;;;;;21.98;39.05;99362.63;4990481;28;20042;-55
2022/05/25 11:21:29;;;;;;;2.60;0.70;;;;;;;22.08;36.87;99348.69;4986695;28;20538;-56
2022/05/25 11:24:09;;;;;;;2.65;0.90;;;;;;;22.24;38.03;99356.47;4984111;28;20116;-55
2022/05/25 11:26:41;;;;;;;2.90;1.10;;;;;;;22.68;37.35;99357.38;4989008;28;20465;-56
2022/05/25 11:29:38;;;;;;;0.85;0.75;;;;;;;22.91;36.22;99353.38;4986453;28;20045;-55
2022/05/25 11:32:15;;;;;;;4.30;1.10;;;;;;;22.06;37.03;99356.38;5004683;28;20046;-55
2022/05/25 11:35:17;;;;;;;1.48;0.77;;;;;;;21.38;37.94;99354.91;4985895;28;20466;-56
2022/05/25 11:37:58;;;;;;;1.55;0.90;;;;;;;22.23;37.23;99352.16;4966610;28;20081;-55
2022/05/25 11:40:44;;;;;;;4.68;0.88;;;;;;;21.68;37.16;99351.41;4988370;28;20026;-56
2022/05/25 11:43:28;;;;;;;2.30;0.80;;;;;;;20.73;38.87;99351.50;4986644;28;20416;-55
2022/05/25 11:46:31;;;;;;;4.22;0.85;;;;;;;21.49;38.70;99359.00;5004342;28;20036;-55
2022/05/25 11:49:21;;;;;;;3.90;1.10;;;;;;;20.94;39.08;99361.94;5004007;28;20054;-57
2022/05/25 11:52:24;;;;;;;1.55;0.98;;;;;;;21.74;38.74;99362.97;5007281;28;20396;-56
2022/05/25 11:54:59;;;;;;;1.92;0.93;;;;;;;22.65;38.46;99356.09;5003771;28;20040;-55
2022/05/25 11:57:46;;;;;;;2.60;0.90;;;;;;;21.84;38.29;99364.63;5007458;28;20555;-56
2022/05/25 12:00:39;;;;;;;1.73;0.80;;;;;;;21.68;39.08;99359.59;5009170;28;20034;-55
2022/05/25 12:03:42;;;;;;;2.58;1.00;;;;;;;22.23;38.30;99363.06;4976903;28;20161;-57
2022/05/25 12:06:16;;;;;;;2.10;1.02;;;;;;;22.41;37.91;99372.91;5001446;28;20034;-54
2022/05/25 12:09:07;;;;;;;1.77;0.98;;;;;;;21.61;37.77;99363.88;5002242;28;20095;-54
2022/05/25 12:11:56;;;;;;;1.88;0.82;;;;;;;21.52;38.94;99372.81;5003368;28;20121;-56
2022/05/25 12:14:31;;;;;;;1.33;0.67;;;;;;;21.93;38.21;99373.69;5006464;28;20033;-55
2022/05/25 12:17:02;;;;;;;4.75;1.05;;;;;;;22.98;37.04;99372.06;5008933;28;20038;-55
2022/05/25 12:19:28;;;;;;;3.45;0.95;;;;;;;22.84;35.73;99366.72;5008049;28;20036;-55
2022/05/25 12:22:02;;;;;;;2.75;0.98;;;;;;;23.07;35.22;99366.59;5006686;28;20033;-55
2022/05/25 12:24:47;;;;;;;2.08;0.77;;;;;;;21.87;35.05;99362.09;4972128;28;20512;-54